sensor_id;sensor_type;location;lat;lon;timestamp;temperature;humidity
18541;DHT22;9400;50.924;5.328;2022-10-26T00:01:31;13.00;99.90
18541;DHT22;9400;50.924;5.328;2022-10-26T00:03:58;13.00;99.90
18541;DHT22;9400;50.924;5.328;2022-10-26T00:06:26;13.00;99.90
18541;DHT22;9400;50.924;5.328;2022-10-26T00:08:56;13.00;99.90
18541;DHT22;9400;50.924;5.328;2022-10-26T00:11:23;13.00;99.90
18541;DHT22;9400;50.924;5.328;2022-10-26T00:13:52;12.90;99.90
18541;DHT22;9400;50.924;5.328;2022-10-26T00:16:22;12.90;99.90
18541;DHT22;9400;50.924;5.328;2022-10-26T00:18:50;12.90;99.90
18541;DHT22;9400;50.924;5.328;2022-10-26T00:21:17;12.90;99.90
18541;DHT22;9400;50.924;5.328;2022-10-26T00:23:45;12.90;99.90
18541;DHT22;9400;50.924;5.328;2022-10-26T00:26:13;13.00;99.90
18541;DHT22;9400;50.924;5.328;2022-10-26T00:28:41;13.00;99.90
18541;DHT22;9400;50.924;5.328;2022-10-26T00:31:12;13.00;99.90
18541;DHT22;9400;50.924;5.328;2022-10-26T00:33:40;13.10;99.90
18541;DHT22;9400;50.924;5.328;2022-10-26T00:36:09;13.00;99.90
18541;DHT22;9400;50.924;5.328;2022-10-26T00:38:39;13.00;99.90
18541;DHT22;9400;50.924;5.328;2022-10-26T00:41:13;13.00;99.90
18541;DHT22;9400;50.924;5.328;2022-10-26T00:43:42;12.90;99.90
18541;DHT22;9400;50.924;5.328;2022-10-26T00:46:15;13.00;99.90
18541;DHT22;9400;50.924;5.328;2022-10-26T00:48:46;13.10;99.90
18541;DHT22;9400;50.924;5.328;2022-10-26T00:51:22;13.10;99.90
18541;DHT22;9400;50.924;5.328;2022-10-26T00:53:51;13.10;99.90
18541;DHT22;9400;50.924;5.328;2022-10-26T00:56:20;13.10;99.90
18541;DHT22;9400;50.924;5.328;2022-10-26T00:58:47;13.20;99.90
18541;DHT22;9400;50.924;5.328;2022-10-26T01:01:17;13.20;99.90
18541;DHT22;9400;50.924;5.328;2022-10-26T01:03:45;13.20;99.90
18541;DHT22;9400;50.924;5.328;2022-10-26T01:06:13;13.30;99.90
18541;DHT22;9400;50.924;5.328;2022-10-26T01:08:42;13.30;99.90
18541;DHT22;9400;50.924;5.328;2022-10-26T01:11:10;13.30;99.90
18541;DHT22;9400;50.924;5.328;2022-10-26T01:13:39;13.40;99.90
18541;DHT22;9400;50.924;5.328;2022-10-26T01:16:21;13.40;99.90
18541;DHT22;9400;50.924;5.328;2022-10-26T01:19:03;13.40;99.90
18541;DHT22;9400;50.924;5.328;2022-10-26T01:21:42;13.50;99.90
18541;DHT22;9400;50.924;5.328;2022-10-26T01:24:30;13.50;99.90
18541;DHT22;9400;50.924;5.328;2022-10-26T01:27:22;13.50;99.90
18541;DHT22;9400;50.924;5.328;2022-10-26T01:30:29;13.50;99.90
18541;DHT22;9400;50.924;5.328;2022-10-26T01:33:20;13.50;99.90
18541;DHT22;9400;50.924;5.328;2022-10-26T01:35:53;13.50;99.90
18541;DHT22;9400;50.924;5.328;2022-10-26T01:38:31;13.50;99.90
18541;DHT22;9400;50.924;5.328;2022-10-26T01:41:04;13.50;99.90
18541;DHT22;9400;50.924;5.328;2022-10-26T01:43:36;13.50;99.90
18541;DHT22;9400;50.924;5.328;2022-10-26T01:46:09;13.50;99.90
18541;DHT22;9400;50.924;5.328;2022-10-26T01:48:38;13.50;99.90
18541;DHT22;9400;50.924;5.328;2022-10-26T01:51:08;13.50;99.90
18541;DHT22;9400;50.924;5.328;2022-10-26T01:53:43;13.50;99.90
18541;DHT22;9400;50.924;5.328;2022-10-26T01:56:16;13.50;99.90
18541;DHT22;9400;50.924;5.328;2022-10-26T02:02:03;13.50;99.90
18541;DHT22;9400;50.924;5.328;2022-10-26T02:04:38;13.50;99.90
18541;DHT22;9400;50.924;5.328;2022-10-26T02:07:16;13.50;99.90
18541;DHT22;9400;50.924;5.328;2022-10-26T02:09:55;13.50;99.90
18541;DHT22;9400;50.924;5.328;2022-10-26T02:12:32;13.60;99.90
18541;DHT22;9400;50.924;5.328;2022-10-26T02:15:07;13.60;99.90
18541;DHT22;9400;50.924;5.328;2022-10-26T02:17:45;13.60;99.90
18541;DHT22;9400;50.924;5.328;2022-10-26T02:20:19;13.60;99.90
18541;DHT22;9400;50.924;5.328;2022-10-26T02:22:50;13.60;99.90
18541;DHT22;9400;50.924;5.328;2022-10-26T02:25:23;13.50;99.90
18541;DHT22;9400;50.924;5.328;2022-10-26T02:27:56;13.50;99.90
18541;DHT22;9400;50.924;5.328;2022-10-26T02:30:24;13.60;99.90
18541;DHT22;9400;50.924;5.328;2022-10-26T02:32:56;13.60;99.90
18541;DHT22;9400;50.924;5.328;2022-10-26T02:35:27;13.60;99.90
18541;DHT22;9400;50.924;5.328;2022-10-26T02:37:58;13.60;99.90
18541;DHT22;9400;50.924;5.328;2022-10-26T02:40:28;13.60;99.90
18541;DHT22;9400;50.924;5.328;2022-10-26T02:43:00;13.50;99.90
18541;DHT22;9400;50.924;5.328;2022-10-26T02:45:33;13.50;99.90
18541;DHT22;9400;50.924;5.328;2022-10-26T02:48:07;13.50;99.90
18541;DHT22;9400;50.924;5.328;2022-10-26T02:50:41;13.60;99.90
18541;DHT22;9400;50.924;5.328;2022-10-26T02:53:17;13.60;99.90
18541;DHT22;9400;50.924;5.328;2022-10-26T02:55:50;13.60;99.90
18541;DHT22;9400;50.924;5.328;2022-10-26T02:58:21;13.60;99.90
18541;DHT22;9400;50.924;5.328;2022-10-26T03:00:52;13.60;99.90
18541;DHT22;9400;50.924;5.328;2022-10-26T03:03:21;13.60;99.90
18541;DHT22;9400;50.924;5.328;2022-10-26T03:05:49;13.50;99.90
18541;DHT22;9400;50.924;5.328;2022-10-26T03:08:17;13.50;99.90
18541;DHT22;9400;50.924;5.328;2022-10-26T03:10:45;13.50;99.90
18541;DHT22;9400;50.924;5.328;2022-10-26T03:13:13;13.50;99.90
18541;DHT22;9400;50.924;5.328;2022-10-26T03:15:40;13.50;99.90
18541;DHT22;9400;50.924;5.328;2022-10-26T03:18:10;13.50;99.90
18541;DHT22;9400;50.924;5.328;2022-10-26T03:20:43;13.60;99.90
18541;DHT22;9400;50.924;5.328;2022-10-26T03:23:10;13.60;99.90
18541;DHT22;9400;50.924;5.328;2022-10-26T03:25:38;13.60;99.90
18541;DHT22;9400;50.924;5.328;2022-10-26T03:28:06;13.70;99.90
18541;DHT22;9400;50.924;5.328;2022-10-26T03:30:34;13.70;99.90
18541;DHT22;9400;50.924;5.328;2022-10-26T03:33:02;13.70;99.90
18541;DHT22;9400;50.924;5.328;2022-10-26T03:35:30;13.80;99.90
18541;DHT22;9400;50.924;5.328;2022-10-26T03:37:59;13.80;99.90
18541;DHT22;9400;50.924;5.328;2022-10-26T03:40:27;13.90;99.90
18541;DHT22;9400;50.924;5.328;2022-10-26T03:42:54;13.90;99.90
18541;DHT22;9400;50.924;5.328;2022-10-26T03:45:22;14.00;99.90
18541;DHT22;9400;50.924;5.328;2022-10-26T03:47:49;14.00;99.90
18541;DHT22;9400;50.924;5.328;2022-10-26T03:50:18;14.10;99.90
18541;DHT22;9400;50.924;5.328;2022-10-26T03:52:47;14.10;99.90
18541;DHT22;9400;50.924;5.328;2022-10-26T03:55:17;14.10;99.90
18541;DHT22;9400;50.924;5.328;2022-10-26T03:57:46;14.10;99.90
18541;DHT22;9400;50.924;5.328;2022-10-26T04:00:16;14.10;99.90
18541;DHT22;9400;50.924;5.328;2022-10-26T04:02:44;14.00;99.90
18541;DHT22;9400;50.924;5.328;2022-10-26T04:05:14;14.10;99.90
18541;DHT22;9400;50.924;5.328;2022-10-26T04:07:41;14.20;99.90
18541;DHT22;9400;50.924;5.328;2022-10-26T04:10:09;14.20;99.90
18541;DHT22;9400;50.924;5.328;2022-10-26T04:12:39;14.20;99.90
18541;DHT22;9400;50.924;5.328;2022-10-26T04:15:08;14.30;99.90
18541;DHT22;9400;50.924;5.328;2022-10-26T04:17:36;14.20;99.90
18541;DHT22;9400;50.924;5.328;2022-10-26T04:20:06;14.30;99.90
18541;DHT22;9400;50.924;5.328;2022-10-26T04:22:33;14.30;99.90
18541;DHT22;9400;50.924;5.328;2022-10-26T04:25:01;14.20;99.90
18541;DHT22;9400;50.924;5.328;2022-10-26T04:27:29;14.30;99.90
18541;DHT22;9400;50.924;5.328;2022-10-26T04:29:58;14.30;99.90
18541;DHT22;9400;50.924;5.328;2022-10-26T04:32:26;14.40;99.90
18541;DHT22;9400;50.924;5.328;2022-10-26T04:34:53;14.50;99.90
18541;DHT22;9400;50.924;5.328;2022-10-26T04:37:22;14.50;99.90
18541;DHT22;9400;50.924;5.328;2022-10-26T04:39:50;14.50;99.90
18541;DHT22;9400;50.924;5.328;2022-10-26T04:42:18;14.60;99.90
18541;DHT22;9400;50.924;5.328;2022-10-26T04:44:46;14.70;99.90
18541;DHT22;9400;50.924;5.328;2022-10-26T04:47:16;14.80;99.90
18541;DHT22;9400;50.924;5.328;2022-10-26T04:49:44;14.90;99.90
18541;DHT22;9400;50.924;5.328;2022-10-26T04:52:12;15.00;99.90
18541;DHT22;9400;50.924;5.328;2022-10-26T04:54:39;15.00;99.90
18541;DHT22;9400;50.924;5.328;2022-10-26T04:57:06;15.10;99.90
18541;DHT22;9400;50.924;5.328;2022-10-26T04:59:34;15.10;99.90
18541;DHT22;9400;50.924;5.328;2022-10-26T05:02:01;15.20;99.90
18541;DHT22;9400;50.924;5.328;2022-10-26T05:04:31;15.20;99.90
18541;DHT22;9400;50.924;5.328;2022-10-26T05:06:59;15.40;99.90
18541;DHT22;9400;50.924;5.328;2022-10-26T05:09:29;15.50;99.90
18541;DHT22;9400;50.924;5.328;2022-10-26T05:11:59;15.50;99.90
18541;DHT22;9400;50.924;5.328;2022-10-26T05:14:27;15.60;99.90
18541;DHT22;9400;50.924;5.328;2022-10-26T05:16:55;15.60;99.90
18541;DHT22;9400;50.924;5.328;2022-10-26T05:19:23;15.60;99.90
18541;DHT22;9400;50.924;5.328;2022-10-26T05:21:53;15.60;99.90
18541;DHT22;9400;50.924;5.328;2022-10-26T05:24:20;15.60;99.90
18541;DHT22;9400;50.924;5.328;2022-10-26T05:26:56;15.60;99.90
18541;DHT22;9400;50.924;5.328;2022-10-26T05:29:23;15.60;99.90
18541;DHT22;9400;50.924;5.328;2022-10-26T05:31:52;15.60;99.90
18541;DHT22;9400;50.924;5.328;2022-10-26T05:34:20;15.70;99.90
18541;DHT22;9400;50.924;5.328;2022-10-26T05:36:47;15.70;99.90
18541;DHT22;9400;50.924;5.328;2022-10-26T05:39:16;15.70;99.90
18541;DHT22;9400;50.924;5.328;2022-10-26T05:41:44;15.70;99.90
18541;DHT22;9400;50.924;5.328;2022-10-26T05:44:13;15.70;99.90
18541;DHT22;9400;50.924;5.328;2022-10-26T05:46:40;15.70;99.90
18541;DHT22;9400;50.924;5.328;2022-10-26T05:49:08;15.70;99.90
18541;DHT22;9400;50.924;5.328;2022-10-26T05:51:36;15.70;99.90
18541;DHT22;9400;50.924;5.328;2022-10-26T05:54:04;15.70;99.90
18541;DHT22;9400;50.924;5.328;2022-10-26T05:56:36;15.70;99.90
18541;DHT22;9400;50.924;5.328;2022-10-26T05:59:09;15.70;99.90
18541;DHT22;9400;50.924;5.328;2022-10-26T06:01:48;15.70;99.90
18541;DHT22;9400;50.924;5.328;2022-10-26T06:04:29;15.70;99.90
18541;DHT22;9400;50.924;5.328;2022-10-26T06:07:01;15.60;99.90
18541;DHT22;9400;50.924;5.328;2022-10-26T06:09:29;15.60;99.90
18541;DHT22;9400;50.924;5.328;2022-10-26T06:11:59;15.60;99.90
18541;DHT22;9400;50.924;5.328;2022-10-26T06:14:27;15.70;99.90
18541;DHT22;9400;50.924;5.328;2022-10-26T06:17:06;15.60;99.90
18541;DHT22;9400;50.924;5.328;2022-10-26T06:20:02;15.60;99.90
18541;DHT22;9400;50.924;5.328;2022-10-26T06:22:46;15.60;99.90
18541;DHT22;9400;50.924;5.328;2022-10-26T06:25:26;15.50;99.90
18541;DHT22;9400;50.924;5.328;2022-10-26T06:28:04;15.50;99.90
18541;DHT22;9400;50.924;5.328;2022-10-26T06:30:35;15.50;99.90
18541;DHT22;9400;50.924;5.328;2022-10-26T06:33:03;15.50;99.90
18541;DHT22;9400;50.924;5.328;2022-10-26T06:35:36;15.50;99.90
18541;DHT22;9400;50.924;5.328;2022-10-26T06:38:12;15.50;99.90
18541;DHT22;9400;50.924;5.328;2022-10-26T06:40:44;15.40;99.90
18541;DHT22;9400;50.924;5.328;2022-10-26T06:43:21;15.40;99.90
18541;DHT22;9400;50.924;5.328;2022-10-26T06:45:55;15.40;99.90
18541;DHT22;9400;50.924;5.328;2022-10-26T06:48:27;15.40;99.90
18541;DHT22;9400;50.924;5.328;2022-10-26T06:50:56;15.30;99.90
18541;DHT22;9400;50.924;5.328;2022-10-26T06:53:28;15.30;99.90
18541;DHT22;9400;50.924;5.328;2022-10-26T06:55:58;15.40;99.90
18541;DHT22;9400;50.924;5.328;2022-10-26T06:58:33;15.40;99.90
18541;DHT22;9400;50.924;5.328;2022-10-26T07:01:01;15.40;99.90
18541;DHT22;9400;50.924;5.328;2022-10-26T07:03:29;15.40;99.90
18541;DHT22;9400;50.924;5.328;2022-10-26T07:05:57;15.40;99.90
18541;DHT22;9400;50.924;5.328;2022-10-26T07:08:24;15.50;99.90
18541;DHT22;9400;50.924;5.328;2022-10-26T07:10:52;15.40;99.90
18541;DHT22;9400;50.924;5.328;2022-10-26T07:13:20;15.40;99.90
18541;DHT22;9400;50.924;5.328;2022-10-26T07:15:55;15.40;99.90
18541;DHT22;9400;50.924;5.328;2022-10-26T07:18:24;15.30;99.90
18541;DHT22;9400;50.924;5.328;2022-10-26T07:20:53;15.30;99.90
18541;DHT22;9400;50.924;5.328;2022-10-26T07:23:21;15.30;99.90
18541;DHT22;9400;50.924;5.328;2022-10-26T07:25:49;15.30;99.90
18541;DHT22;9400;50.924;5.328;2022-10-26T07:28:16;15.40;99.90
18541;DHT22;9400;50.924;5.328;2022-10-26T07:30:44;15.50;99.90
18541;DHT22;9400;50.924;5.328;2022-10-26T07:33:13;15.50;99.90
18541;DHT22;9400;50.924;5.328;2022-10-26T07:35:41;15.50;99.90
18541;DHT22;9400;50.924;5.328;2022-10-26T07:38:09;15.50;99.90
18541;DHT22;9400;50.924;5.328;2022-10-26T07:40:38;15.60;99.90
18541;DHT22;9400;50.924;5.328;2022-10-26T07:43:05;15.60;99.90
18541;DHT22;9400;50.924;5.328;2022-10-26T07:45:33;15.60;99.90
18541;DHT22;9400;50.924;5.328;2022-10-26T07:48:02;15.60;99.90
18541;DHT22;9400;50.924;5.328;2022-10-26T07:50:31;15.70;99.90
18541;DHT22;9400;50.924;5.328;2022-10-26T07:52:58;15.70;99.90
18541;DHT22;9400;50.924;5.328;2022-10-26T07:55:27;15.80;99.90
18541;DHT22;9400;50.924;5.328;2022-10-26T07:57:54;15.80;99.90
18541;DHT22;9400;50.924;5.328;2022-10-26T08:00:22;15.80;99.90
18541;DHT22;9400;50.924;5.328;2022-10-26T08:02:50;15.90;99.90
18541;DHT22;9400;50.924;5.328;2022-10-26T08:05:18;15.90;99.90
18541;DHT22;9400;50.924;5.328;2022-10-26T08:07:48;16.00;99.90
18541;DHT22;9400;50.924;5.328;2022-10-26T08:10:16;16.00;99.90
18541;DHT22;9400;50.924;5.328;2022-10-26T08:12:44;16.10;99.90
18541;DHT22;9400;50.924;5.328;2022-10-26T08:15:12;16.10;99.90
18541;DHT22;9400;50.924;5.328;2022-10-26T08:17:40;16.20;99.90
18541;DHT22;9400;50.924;5.328;2022-10-26T08:20:09;16.20;99.90
18541;DHT22;9400;50.924;5.328;2022-10-26T08:22:37;16.30;99.90
18541;DHT22;9400;50.924;5.328;2022-10-26T08:25:06;16.40;99.90
18541;DHT22;9400;50.924;5.328;2022-10-26T08:27:34;16.50;99.90
18541;DHT22;9400;50.924;5.328;2022-10-26T08:30:02;16.50;99.90
18541;DHT22;9400;50.924;5.328;2022-10-26T08:32:30;16.60;99.90
18541;DHT22;9400;50.924;5.328;2022-10-26T08:34:58;16.70;99.90
18541;DHT22;9400;50.924;5.328;2022-10-26T08:37:26;16.70;99.90
18541;DHT22;9400;50.924;5.328;2022-10-26T08:39:54;16.80;99.90
18541;DHT22;9400;50.924;5.328;2022-10-26T08:42:29;16.90;99.90
18541;DHT22;9400;50.924;5.328;2022-10-26T08:45:02;16.90;99.90
18541;DHT22;9400;50.924;5.328;2022-10-26T08:47:36;17.00;99.90
18541;DHT22;9400;50.924;5.328;2022-10-26T08:50:12;17.10;99.90
18541;DHT22;9400;50.924;5.328;2022-10-26T08:52:49;17.10;99.90
18541;DHT22;9400;50.924;5.328;2022-10-26T08:55:24;17.20;99.90
18541;DHT22;9400;50.924;5.328;2022-10-26T08:57:54;17.20;99.90
18541;DHT22;9400;50.924;5.328;2022-10-26T09:00:24;17.30;99.90
18541;DHT22;9400;50.924;5.328;2022-10-26T09:02:53;17.40;99.90
18541;DHT22;9400;50.924;5.328;2022-10-26T09:05:22;17.40;99.90
18541;DHT22;9400;50.924;5.328;2022-10-26T09:07:58;17.50;99.90
18541;DHT22;9400;50.924;5.328;2022-10-26T09:10:39;17.50;99.90
18541;DHT22;9400;50.924;5.328;2022-10-26T09:13:19;17.60;99.90
18541;DHT22;9400;50.924;5.328;2022-10-26T09:15:58;17.70;99.90
18541;DHT22;9400;50.924;5.328;2022-10-26T09:18:38;17.80;99.90
18541;DHT22;9400;50.924;5.328;2022-10-26T09:21:23;17.90;99.90
18541;DHT22;9400;50.924;5.328;2022-10-26T09:24:00;17.90;99.90
18541;DHT22;9400;50.924;5.328;2022-10-26T09:26:32;17.90;99.90
18541;DHT22;9400;50.924;5.328;2022-10-26T09:29:10;18.00;99.90
18541;DHT22;9400;50.924;5.328;2022-10-26T09:31:41;18.20;99.90
18541;DHT22;9400;50.924;5.328;2022-10-26T09:34:19;18.30;99.90
18541;DHT22;9400;50.924;5.328;2022-10-26T09:36:53;18.30;99.90
18541;DHT22;9400;50.924;5.328;2022-10-26T09:39:31;18.50;99.90
18541;DHT22;9400;50.924;5.328;2022-10-26T09:42:15;18.50;99.90
18541;DHT22;9400;50.924;5.328;2022-10-26T09:44:50;18.50;99.90
18541;DHT22;9400;50.924;5.328;2022-10-26T09:47:29;18.50;99.90
18541;DHT22;9400;50.924;5.328;2022-10-26T09:50:03;18.60;99.90
18541;DHT22;9400;50.924;5.328;2022-10-26T09:52:32;18.60;99.90
18541;DHT22;9400;50.924;5.328;2022-10-26T09:55:00;18.80;99.90
18541;DHT22;9400;50.924;5.328;2022-10-26T09:57:30;18.90;99.90
18541;DHT22;9400;50.924;5.328;2022-10-26T10:00:00;19.00;99.90
18541;DHT22;9400;50.924;5.328;2022-10-26T10:02:36;19.00;99.90
18541;DHT22;9400;50.924;5.328;2022-10-26T10:05:24;19.00;99.90
18541;DHT22;9400;50.924;5.328;2022-10-26T10:08:09;19.10;99.90
18541;DHT22;9400;50.924;5.328;2022-10-26T10:10:38;19.20;99.90
18541;DHT22;9400;50.924;5.328;2022-10-26T10:13:20;19.30;99.90
18541;DHT22;9400;50.924;5.328;2022-10-26T10:16:07;19.30;99.90
18541;DHT22;9400;50.924;5.328;2022-10-26T10:18:38;19.30;99.90
18541;DHT22;9400;50.924;5.328;2022-10-26T10:21:08;19.30;99.90
18541;DHT22;9400;50.924;5.328;2022-10-26T10:23:46;19.40;99.90
18541;DHT22;9400;50.924;5.328;2022-10-26T10:26:14;19.40;99.90
18541;DHT22;9400;50.924;5.328;2022-10-26T10:28:56;19.50;99.90
18541;DHT22;9400;50.924;5.328;2022-10-26T10:31:29;19.60;99.90
18541;DHT22;9400;50.924;5.328;2022-10-26T10:33:58;19.60;99.90
18541;DHT22;9400;50.924;5.328;2022-10-26T10:36:28;19.50;99.90
18541;DHT22;9400;50.924;5.328;2022-10-26T10:38:58;19.60;99.90
18541;DHT22;9400;50.924;5.328;2022-10-26T10:41:31;19.80;99.90
18541;DHT22;9400;50.924;5.328;2022-10-26T10:44:05;19.90;99.90
18541;DHT22;9400;50.924;5.328;2022-10-26T10:46:36;20.00;99.90
18541;DHT22;9400;50.924;5.328;2022-10-26T10:49:05;20.00;99.90
18541;DHT22;9400;50.924;5.328;2022-10-26T10:51:42;20.00;99.90
18541;DHT22;9400;50.924;5.328;2022-10-26T10:54:21;20.00;99.90
18541;DHT22;9400;50.924;5.328;2022-10-26T10:56:52;20.00;99.90
18541;DHT22;9400;50.924;5.328;2022-10-26T10:59:36;20.10;99.90
18541;DHT22;9400;50.924;5.328;2022-10-26T11:05:37;20.30;99.90
18541;DHT22;9400;50.924;5.328;2022-10-26T11:08:14;20.40;99.90
18541;DHT22;9400;50.924;5.328;2022-10-26T11:10:48;20.40;99.90
18541;DHT22;9400;50.924;5.328;2022-10-26T11:13:19;20.50;99.90
18541;DHT22;9400;50.924;5.328;2022-10-26T11:15:53;20.60;99.90
18541;DHT22;9400;50.924;5.328;2022-10-26T11:18:28;20.80;99.90
18541;DHT22;9400;50.924;5.328;2022-10-26T11:21:02;21.00;99.90
18541;DHT22;9400;50.924;5.328;2022-10-26T11:23:36;21.10;99.90
18541;DHT22;9400;50.924;5.328;2022-10-26T11:26:10;21.20;99.90
18541;DHT22;9400;50.924;5.328;2022-10-26T11:28:44;21.30;99.90
18541;DHT22;9400;50.924;5.328;2022-10-26T11:31:22;21.50;99.90
18541;DHT22;9400;50.924;5.328;2022-10-26T11:34:07;21.60;99.90
18541;DHT22;9400;50.924;5.328;2022-10-26T11:36:39;21.80;99.90
18541;DHT22;9400;50.924;5.328;2022-10-26T11:39:16;21.90;99.90
18541;DHT22;9400;50.924;5.328;2022-10-26T11:41:50;21.80;99.90
18541;DHT22;9400;50.924;5.328;2022-10-26T11:44:28;22.10;99.90
18541;DHT22;9400;50.924;5.328;2022-10-26T11:47:01;22.20;99.90
18541;DHT22;9400;50.924;5.328;2022-10-26T11:49:37;22.10;99.90
18541;DHT22;9400;50.924;5.328;2022-10-26T11:52:11;22.10;99.90
18541;DHT22;9400;50.924;5.328;2022-10-26T11:54:46;22.10;99.90
18541;DHT22;9400;50.924;5.328;2022-10-26T11:57:17;22.20;99.90
18541;DHT22;9400;50.924;5.328;2022-10-26T11:59:48;22.10;99.90
18541;DHT22;9400;50.924;5.328;2022-10-26T12:02:19;22.20;99.90
18541;DHT22;9400;50.924;5.328;2022-10-26T12:04:51;22.50;99.90
18541;DHT22;9400;50.924;5.328;2022-10-26T12:07:25;22.60;99.90
18541;DHT22;9400;50.924;5.328;2022-10-26T12:09:55;22.70;99.90
18541;DHT22;9400;50.924;5.328;2022-10-26T12:12:31;22.90;99.90
18541;DHT22;9400;50.924;5.328;2022-10-26T12:15:09;22.80;99.90
18541;DHT22;9400;50.924;5.328;2022-10-26T12:17:48;23.10;99.90
18541;DHT22;9400;50.924;5.328;2022-10-26T12:20:46;23.50;99.90
18541;DHT22;9400;50.924;5.328;2022-10-26T12:23:21;23.80;99.90
18541;DHT22;9400;50.924;5.328;2022-10-26T12:25:49;24.00;99.90
18541;DHT22;9400;50.924;5.328;2022-10-26T12:28:39;24.00;99.90
18541;DHT22;9400;50.924;5.328;2022-10-26T12:34:13;24.60;99.90
18541;DHT22;9400;50.924;5.328;2022-10-26T12:36:48;25.10;99.90
18541;DHT22;9400;50.924;5.328;2022-10-26T12:39:30;25.60;99.90
18541;DHT22;9400;50.924;5.328;2022-10-26T12:45:18;25.70;99.90
18541;DHT22;9400;50.924;5.328;2022-10-26T12:48:20;25.50;99.90
18541;DHT22;9400;50.924;5.328;2022-10-26T12:50:50;25.60;99.90
18541;DHT22;9400;50.924;5.328;2022-10-26T12:53:19;25.00;99.90
18541;DHT22;9400;50.924;5.328;2022-10-26T12:56:04;25.40;99.90
18541;DHT22;9400;50.924;5.328;2022-10-26T12:59:09;25.50;99.90
18541;DHT22;9400;50.924;5.328;2022-10-26T13:05:10;26.00;99.90
18541;DHT22;9400;50.924;5.328;2022-10-26T13:07:48;26.10;99.90
18541;DHT22;9400;50.924;5.328;2022-10-26T13:10:21;26.30;99.90
18541;DHT22;9400;50.924;5.328;2022-10-26T13:12:55;26.00;99.90
18541;DHT22;9400;50.924;5.328;2022-10-26T13:15:27;25.50;99.90
18541;DHT22;9400;50.924;5.328;2022-10-26T13:18:01;25.70;99.90
18541;DHT22;9400;50.924;5.328;2022-10-26T13:20:35;26.00;99.90
18541;DHT22;9400;50.924;5.328;2022-10-26T13:23:14;26.40;99.90
18541;DHT22;9400;50.924;5.328;2022-10-26T13:26:01;25.60;99.90
18541;DHT22;9400;50.924;5.328;2022-10-26T13:28:43;25.20;99.90
18541;DHT22;9400;50.924;5.328;2022-10-26T13:34:13;25.70;99.90
18541;DHT22;9400;50.924;5.328;2022-10-26T13:36:46;25.90;99.90
18541;DHT22;9400;50.924;5.328;2022-10-26T13:39:21;26.30;99.90
18541;DHT22;9400;50.924;5.328;2022-10-26T13:41:52;25.80;99.90
18541;DHT22;9400;50.924;5.328;2022-10-26T13:44:25;26.00;99.90
18541;DHT22;9400;50.924;5.328;2022-10-26T13:47:00;25.90;99.90
18541;DHT22;9400;50.924;5.328;2022-10-26T13:49:32;25.90;99.90
18541;DHT22;9400;50.924;5.328;2022-10-26T13:52:03;26.20;99.90
18541;DHT22;9400;50.924;5.328;2022-10-26T13:54:38;26.20;99.90
18541;DHT22;9400;50.924;5.328;2022-10-26T13:57:15;25.90;99.90
18541;DHT22;9400;50.924;5.328;2022-10-26T13:59:46;25.90;99.90
18541;DHT22;9400;50.924;5.328;2022-10-26T14:02:18;25.50;99.90
18541;DHT22;9400;50.924;5.328;2022-10-26T14:04:51;25.30;99.90
18541;DHT22;9400;50.924;5.328;2022-10-26T14:07:23;25.30;99.90
18541;DHT22;9400;50.924;5.328;2022-10-26T14:09:53;24.90;99.90
18541;DHT22;9400;50.924;5.328;2022-10-26T14:12:24;25.00;99.90
18541;DHT22;9400;50.924;5.328;2022-10-26T14:15:04;25.10;99.90
18541;DHT22;9400;50.924;5.328;2022-10-26T14:17:32;25.20;99.90
18541;DHT22;9400;50.924;5.328;2022-10-26T14:20:02;25.40;99.90
18541;DHT22;9400;50.924;5.328;2022-10-26T14:22:31;25.70;99.90
18541;DHT22;9400;50.924;5.328;2022-10-26T14:25:00;25.80;99.90
18541;DHT22;9400;50.924;5.328;2022-10-26T14:27:32;25.60;99.90
18541;DHT22;9400;50.924;5.328;2022-10-26T14:30:20;26.70;99.90
18541;DHT22;9400;50.924;5.328;2022-10-26T14:32:49;26.80;99.90
18541;DHT22;9400;50.924;5.328;2022-10-26T14:35:19;27.40;99.90
18541;DHT22;9400;50.924;5.328;2022-10-26T14:37:52;26.60;99.90
18541;DHT22;9400;50.924;5.328;2022-10-26T14:40:25;26.00;99.90
18541;DHT22;9400;50.924;5.328;2022-10-26T14:42:58;25.10;99.90
18541;DHT22;9400;50.924;5.328;2022-10-26T14:45:31;24.20;99.90
18541;DHT22;9400;50.924;5.328;2022-10-26T14:48:01;23.70;99.90
18541;DHT22;9400;50.924;5.328;2022-10-26T14:50:30;23.30;99.90
18541;DHT22;9400;50.924;5.328;2022-10-26T14:53:02;23.00;99.90
18541;DHT22;9400;50.924;5.328;2022-10-26T14:55:31;22.70;99.90
18541;DHT22;9400;50.924;5.328;2022-10-26T14:58:16;22.50;99.90
18541;DHT22;9400;50.924;5.328;2022-10-26T15:01:22;22.30;99.90
18541;DHT22;9400;50.924;5.328;2022-10-26T15:03:54;22.20;99.90
18541;DHT22;9400;50.924;5.328;2022-10-26T15:06:39;22.30;99.90
18541;DHT22;9400;50.924;5.328;2022-10-26T15:09:29;22.30;99.90
18541;DHT22;9400;50.924;5.328;2022-10-26T15:11:57;22.10;99.90
18541;DHT22;9400;50.924;5.328;2022-10-26T15:14:28;22.10;99.90
18541;DHT22;9400;50.924;5.328;2022-10-26T15:16:58;22.00;99.90
18541;DHT22;9400;50.924;5.328;2022-10-26T15:19:27;21.90;99.90
18541;DHT22;9400;50.924;5.328;2022-10-26T15:21:55;22.00;99.90
18541;DHT22;9400;50.924;5.328;2022-10-26T15:24:29;21.90;99.90
18541;DHT22;9400;50.924;5.328;2022-10-26T15:26:58;21.80;99.90
18541;DHT22;9400;50.924;5.328;2022-10-26T15:29:37;21.70;99.90
18541;DHT22;9400;50.924;5.328;2022-10-26T15:32:26;21.60;99.90
18541;DHT22;9400;50.924;5.328;2022-10-26T15:35:25;21.50;99.90
18541;DHT22;9400;50.924;5.328;2022-10-26T15:37:54;21.40;99.90
18541;DHT22;9400;50.924;5.328;2022-10-26T15:40:24;21.40;99.90
18541;DHT22;9400;50.924;5.328;2022-10-26T15:42:54;21.40;99.90
18541;DHT22;9400;50.924;5.328;2022-10-26T15:45:25;21.50;99.90
18541;DHT22;9400;50.924;5.328;2022-10-26T15:47:57;21.50;99.90
18541;DHT22;9400;50.924;5.328;2022-10-26T15:50:27;21.50;99.90
18541;DHT22;9400;50.924;5.328;2022-10-26T15:52:58;21.30;99.90
18541;DHT22;9400;50.924;5.328;2022-10-26T15:55:28;21.50;99.90
18541;DHT22;9400;50.924;5.328;2022-10-26T15:57:56;21.50;99.90
18541;DHT22;9400;50.924;5.328;2022-10-26T16:00:24;21.60;99.90
18541;DHT22;9400;50.924;5.328;2022-10-26T16:02:52;21.60;99.90
18541;DHT22;9400;50.924;5.328;2022-10-26T16:05:21;21.50;99.90
18541;DHT22;9400;50.924;5.328;2022-10-26T16:07:49;21.30;99.90
18541;DHT22;9400;50.924;5.328;2022-10-26T16:10:22;21.20;99.90
18541;DHT22;9400;50.924;5.328;2022-10-26T16:12:50;21.20;99.90
18541;DHT22;9400;50.924;5.328;2022-10-26T16:15:20;21.10;99.90
18541;DHT22;9400;50.924;5.328;2022-10-26T16:17:48;21.00;99.90
18541;DHT22;9400;50.924;5.328;2022-10-26T16:20:18;20.90;99.90
18541;DHT22;9400;50.924;5.328;2022-10-26T16:22:50;20.80;99.90
18541;DHT22;9400;50.924;5.328;2022-10-26T16:25:23;20.60;99.90
18541;DHT22;9400;50.924;5.328;2022-10-26T16:27:53;20.50;99.90
18541;DHT22;9400;50.924;5.328;2022-10-26T16:30:21;20.50;99.90
18541;DHT22;9400;50.924;5.328;2022-10-26T16:32:51;20.40;99.90
18541;DHT22;9400;50.924;5.328;2022-10-26T16:35:19;20.40;99.90
18541;DHT22;9400;50.924;5.328;2022-10-26T16:37:47;20.30;99.90